Altheimer, Arkansas
Current Conditions -  °F | °C
As of 12:53 AM on Monday 24 Nov 2014 (Local Time) from KPBF Reporting Station
Light Rain Light Rain  
Wind Chill: 57°   Ceiling: Unl
Heat Index: 57°   Visibility: 10mi
Dew Point: 47°   Wind: 10mph
Humidity: 69%   Direction: 240°WSW
Pressure: 29.53"   Gusts: 21mph
Location:  34.32°N, 91.85°W
Report Text: KPBF 240653Z AUTO 24009G18KT 10SM -RA CLR 14/08 A2953 RMK AO2 SLP000 P0000 T01390083
Loading
Personal Weather Stations






























Interactive Weather Map New forecast layout! Learn more

10-Day Weather Forecast

Advertisements
Track Severe Weather on mobile